createdAt,value
2023-01-18T00:04:11.123Z,20.40
2023-01-18T00:09:12.558Z,20.40
2023-01-18T00:14:14.142Z,20.40
2023-01-18T00:19:15.617Z,20.40
2023-01-18T00:24:17.059Z,20.40
2023-01-18T00:29:18.461Z,20.40
2023-01-18T00:34:19.864Z,20.40
2023-01-18T00:39:21.273Z,20.40
2023-01-18T00:44:22.700Z,20.40
2023-01-18T00:49:24.111Z,20.30
2023-01-18T00:54:25.521Z,20.40
2023-01-18T00:59:26.912Z,20.40
2023-01-18T01:04:28.316Z,20.40
2023-01-18T01:09:29.697Z,20.40
2023-01-18T01:14:31.092Z,20.30
2023-01-18T01:19:32.491Z,20.40
2023-01-18T01:24:33.906Z,20.40
2023-01-18T01:29:35.303Z,20.30
2023-01-18T01:34:36.753Z,20.30
2023-01-18T01:39:38.161Z,20.30
2023-01-18T01:44:39.560Z,20.30
2023-01-18T01:49:40.969Z,20.30
2023-01-18T01:54:42.433Z,20.40
2023-01-18T01:59:43.848Z,20.30
2023-01-18T02:04:45.257Z,20.30
2023-01-18T02:09:46.643Z,20.30
2023-01-18T02:14:48.100Z,20.30
2023-01-18T02:19:49.509Z,20.30
2023-01-18T02:24:50.916Z,20.30
2023-01-18T02:29:52.330Z,20.30
2023-01-18T02:34:53.715Z,20.30
2023-01-18T02:39:55.120Z,20.30
2023-01-18T02:44:56.542Z,20.30
2023-01-18T02:49:57.960Z,20.30
2023-01-18T02:54:59.427Z,20.30
2023-01-18T03:00:00.849Z,20.30
2023-01-18T03:05:02.248Z,20.30
2023-01-18T03:10:03.638Z,20.40
2023-01-18T03:15:05.065Z,20.40
2023-01-18T03:20:06.559Z,20.40
2023-01-18T03:25:07.984Z,20.40
2023-01-18T03:30:09.389Z,20.40
2023-01-18T03:35:10.794Z,20.40
2023-01-18T03:40:12.190Z,20.40
2023-01-18T03:45:13.575Z,20.40
2023-01-18T03:50:14.976Z,20.40
2023-01-18T03:55:16.388Z,20.40
2023-01-18T04:00:17.795Z,20.40
2023-01-18T04:05:19.194Z,20.40
2023-01-18T04:10:20.591Z,20.40
2023-01-18T04:15:21.990Z,20.40
2023-01-18T04:20:23.393Z,20.30
2023-01-18T04:25:24.805Z,20.30
2023-01-18T04:30:26.198Z,20.30
2023-01-18T04:35:27.610Z,20.30
2023-01-18T04:40:29.021Z,20.30
2023-01-18T04:45:30.769Z,20.30
2023-01-18T04:50:32.181Z,20.30
2023-01-18T04:55:33.583Z,20.30
2023-01-18T05:00:35.027Z,20.30
2023-01-18T05:05:36.482Z,20.30
2023-01-18T05:10:37.882Z,20.30
2023-01-18T05:15:39.289Z,20.30
2023-01-18T05:20:40.731Z,20.30
2023-01-18T05:25:42.125Z,20.30
2023-01-18T05:30:43.537Z,20.30
2023-01-18T05:35:44.969Z,20.30
2023-01-18T05:40:46.373Z,20.20
2023-01-18T05:45:47.804Z,20.30
2023-01-18T05:50:49.232Z,20.30
2023-01-18T05:55:50.630Z,20.30
2023-01-18T06:00:52.143Z,20.30
2023-01-18T06:05:54.136Z,20.30
2023-01-18T06:10:55.546Z,20.20
2023-01-18T06:15:57.028Z,20.20
2023-01-18T06:21:01.394Z,20.20
2023-01-18T06:26:03.041Z,20.30
2023-01-18T06:31:04.443Z,20.20
2023-01-18T06:36:05.886Z,20.20
2023-01-18T06:41:07.324Z,20.20
2023-01-18T06:46:08.728Z,20.30
2023-01-18T06:51:10.834Z,20.30
2023-01-18T06:56:12.255Z,20.40
2023-01-18T07:01:13.880Z,20.40
2023-01-18T07:06:15.391Z,20.40
2023-01-18T07:11:16.824Z,20.40
2023-01-18T07:16:18.343Z,20.30
2023-01-18T07:21:20.192Z,20.40
2023-01-18T07:26:21.602Z,20.30
2023-01-18T07:31:23.021Z,20.30
2023-01-18T07:36:24.445Z,20.30
2023-01-18T07:41:25.844Z,20.30
2023-01-18T07:46:27.325Z,20.30
2023-01-18T07:51:28.728Z,20.30
2023-01-18T07:56:30.264Z,20.30
2023-01-18T08:01:31.773Z,20.30
2023-01-18T08:06:33.263Z,20.20
2023-01-18T08:11:34.684Z,20.20
2023-01-18T08:16:36.874Z,20.20
2023-01-18T08:21:38.280Z,20.20
2023-01-18T08:26:39.686Z,20.20
2023-01-18T08:31:41.112Z,20.20
2023-01-18T08:36:42.511Z,20.20
2023-01-18T08:41:43.912Z,20.10
2023-01-18T08:46:45.358Z,20.20
2023-01-18T08:51:46.796Z,20.20
2023-01-18T08:56:48.187Z,20.20
2023-01-18T09:01:49.669Z,20.20
2023-01-18T09:06:51.113Z,20.20
2023-01-18T09:11:52.521Z,20.10
2023-01-18T09:16:53.956Z,20.20
2023-01-18T09:21:55.447Z,20.10
2023-01-18T09:26:56.841Z,20.20
2023-01-18T09:31:58.262Z,20.20
2023-01-18T09:36:59.690Z,20.20
2023-01-18T09:42:01.121Z,20.10
2023-01-18T09:47:02.533Z,20.10
2023-01-18T09:52:03.946Z,20.10
2023-01-18T09:57:05.359Z,20.20
2023-01-18T10:02:06.934Z,20.20
2023-01-18T10:07:08.388Z,20.20
2023-01-18T10:12:09.789Z,20.20
2023-01-18T10:17:11.388Z,20.20
2023-01-18T10:22:12.837Z,20.20
2023-01-18T10:27:14.249Z,20.20
2023-01-18T10:32:15.658Z,20.20
2023-01-18T10:37:17.066Z,20.20
2023-01-18T10:42:18.469Z,20.20
2023-01-18T10:47:19.904Z,20.20
2023-01-18T10:52:21.315Z,20.10
2023-01-18T10:57:22.740Z,20.10
2023-01-18T11:02:24.182Z,20.20
2023-01-18T11:07:25.677Z,20.10
2023-01-18T11:12:27.088Z,20.10
2023-01-18T11:17:28.475Z,20.10
2023-01-18T11:22:29.897Z,20.10
2023-01-18T11:27:31.424Z,20.10
2023-01-18T11:32:32.831Z,20.10
2023-01-18T11:37:34.262Z,20.20
2023-01-18T11:42:35.692Z,20.20
2023-01-18T11:47:37.116Z,20.20
2023-01-18T11:52:38.643Z,20.30
2023-01-18T11:57:40.114Z,20.30
2023-01-18T12:02:41.559Z,20.30
2023-01-18T12:07:42.963Z,20.40
2023-01-18T12:12:44.399Z,20.40
2023-01-18T12:17:46.249Z,20.40
2023-01-18T12:22:47.735Z,20.40
2023-01-18T12:27:49.124Z,20.40
2023-01-18T12:32:50.590Z,20.40
2023-01-18T12:37:51.998Z,20.40
2023-01-18T12:42:53.403Z,20.50
2023-01-18T12:47:54.990Z,20.50
2023-01-18T12:52:56.439Z,20.50
2023-01-18T12:57:58.146Z,20.50
2023-01-18T13:02:59.958Z,20.50
2023-01-18T13:08:01.551Z,20.60
2023-01-18T13:13:03.149Z,20.50
2023-01-18T13:18:04.551Z,20.50
2023-01-18T13:23:05.961Z,20.50
2023-01-18T13:28:07.362Z,20.60
2023-01-18T13:33:08.767Z,20.60
2023-01-18T13:38:10.214Z,20.60
2023-01-18T13:43:11.667Z,20.50
2023-01-18T13:48:13.083Z,20.50
2023-01-18T13:53:14.558Z,20.50
2023-01-18T13:58:15.970Z,20.50
2023-01-18T14:03:17.405Z,20.60
2023-01-18T14:08:18.835Z,20.60
2023-01-18T14:13:20.289Z,20.60
2023-01-18T14:18:21.744Z,20.50
2023-01-18T14:23:25.106Z,20.60
2023-01-18T14:28:26.628Z,20.60
2023-01-18T14:33:28.115Z,20.60
2023-01-18T14:38:29.540Z,20.60
2023-01-18T14:43:31.031Z,20.60
2023-01-18T14:48:32.444Z,20.60
2023-01-18T14:53:33.863Z,20.60
2023-01-18T14:58:35.295Z,20.60
2023-01-18T15:03:36.723Z,20.60
2023-01-18T15:08:38.185Z,20.60
2023-01-18T15:13:39.595Z,20.60
2023-01-18T15:18:41.062Z,20.60
2023-01-18T15:23:42.557Z,20.60
2023-01-18T15:28:44.011Z,20.60
2023-01-18T15:33:45.452Z,20.60
2023-01-18T15:38:46.875Z,20.60
2023-01-18T15:43:48.302Z,20.60
2023-01-18T15:48:49.714Z,20.60
2023-01-18T15:53:51.116Z,20.60
2023-01-18T15:58:52.581Z,20.60
2023-01-18T16:03:53.996Z,20.60
2023-01-18T16:08:55.482Z,20.60
2023-01-18T16:13:56.893Z,20.60
2023-01-18T16:18:58.299Z,20.60
2023-01-18T16:23:59.711Z,20.50
2023-01-18T16:29:01.144Z,20.60
2023-01-18T16:34:02.547Z,20.60
2023-01-18T16:39:03.972Z,20.60
2023-01-18T16:44:05.395Z,20.70
2023-01-18T16:49:06.806Z,20.70
2023-01-18T16:54:08.241Z,20.70
2023-01-18T16:59:09.647Z,20.80
2023-01-18T17:04:11.065Z,20.80
2023-01-18T17:09:12.522Z,20.80
2023-01-18T17:14:14.215Z,20.90
2023-01-18T17:19:15.677Z,20.90
2023-01-18T17:24:17.103Z,20.90
2023-01-18T17:29:18.519Z,20.90
2023-01-18T17:34:23.299Z,20.90
2023-01-18T17:39:37.064Z,21.00
2023-01-18T17:44:48.074Z,21.00
2023-01-18T17:49:49.487Z,21.00
2023-01-18T17:54:50.894Z,21.10
2023-01-18T17:59:52.328Z,21.10
2023-01-18T18:04:53.786Z,21.20
2023-01-18T18:09:55.205Z,21.20
2023-01-18T18:14:56.651Z,21.20
2023-01-18T18:19:58.104Z,21.30
2023-01-18T18:24:59.518Z,21.30
2023-01-18T18:30:00.944Z,21.30
2023-01-18T18:35:05.332Z,21.30
2023-01-18T18:40:06.878Z,21.30
2023-01-18T18:45:08.290Z,21.30
2023-01-18T18:50:09.742Z,21.30
2023-01-18T18:55:11.337Z,21.30
2023-01-18T19:00:12.762Z,21.30
2023-01-18T19:05:14.179Z,21.20
2023-01-18T19:10:15.684Z,21.20
2023-01-18T19:15:17.109Z,21.30
2023-01-18T19:20:18.556Z,21.20
2023-01-18T19:25:20.000Z,21.30
2023-01-18T19:30:21.438Z,21.30
2023-01-18T19:35:22.843Z,21.30
2023-01-18T19:40:24.270Z,21.30
2023-01-18T19:45:29.031Z,21.30
2023-01-18T19:50:30.496Z,21.30
2023-01-18T19:55:31.930Z,21.30
2023-01-18T20:00:33.378Z,21.30
2023-01-18T20:05:34.805Z,21.30
2023-01-18T20:10:36.213Z,21.30
2023-01-18T20:15:37.614Z,21.40
2023-01-18T20:20:39.092Z,21.40
2023-01-18T20:25:40.506Z,21.40
2023-01-18T20:30:42.053Z,21.40
2023-01-18T20:35:43.485Z,21.40
2023-01-18T20:40:44.896Z,21.40
2023-01-18T20:45:46.354Z,21.40
2023-01-18T20:50:47.776Z,21.50
2023-01-18T20:55:49.171Z,21.50
2023-01-18T21:00:50.698Z,21.40
2023-01-18T21:05:52.189Z,21.50
2023-01-18T21:10:53.582Z,21.50
2023-01-18T21:15:55.008Z,21.40
2023-01-18T21:20:56.418Z,21.40
2023-01-18T21:25:57.815Z,21.40
2023-01-18T21:30:59.231Z,21.40
2023-01-18T21:36:00.632Z,21.30
2023-01-18T21:41:02.034Z,21.30
2023-01-18T21:46:03.492Z,21.30
2023-01-18T21:51:04.945Z,21.20
2023-01-18T21:56:06.370Z,21.20
2023-01-18T22:01:07.898Z,21.20
2023-01-18T22:06:09.367Z,21.20
2023-01-18T22:11:10.788Z,21.20
2023-01-18T22:16:12.227Z,21.20
2023-01-18T22:21:13.653Z,21.20
2023-01-18T22:26:15.060Z,21.20
2023-01-18T22:31:16.561Z,21.20
2023-01-18T22:36:18.005Z,21.20
2023-01-18T22:41:19.413Z,21.20
2023-01-18T22:46:20.824Z,21.20
2023-01-18T22:51:22.262Z,21.10
2023-01-18T22:56:23.680Z,21.10
2023-01-18T23:01:25.252Z,21.10
2023-01-18T23:06:26.697Z,21.00
2023-01-18T23:11:28.105Z,21.00
2023-01-18T23:16:29.531Z,21.00
2023-01-18T23:21:30.945Z,20.90
2023-01-18T23:26:32.351Z,20.90
2023-01-18T23:31:33.752Z,20.90
2023-01-18T23:36:35.150Z,20.90
2023-01-18T23:41:36.549Z,20.80
2023-01-18T23:46:37.979Z,20.80
2023-01-18T23:51:39.432Z,20.80
2023-01-18T23:56:40.957Z,20.80
